Hartford, Maine
Current Conditions -  °F | °C
As of 3:55 PM on Tuesday 25 Nov 2014 (Local Time) from KLEW Reporting Station
Clear Clear  
Wind Chill: 54°   Ceiling: Unl
Heat Index: 54°   Visibility: 10mi
Dew Point: 28°   Wind: 10mph
Humidity: 38%   Direction: 210°SSW
Pressure: 29.83"   Gusts: NA
Location:  44.2833°N, 70.3688°W
Report Text: KLEW 252055Z AUTO 21009KT 10SM CLR 12/M02 A2983 RMK AO1 52010
Loading
Personal Weather Stations






























Interactive Weather Map New forecast layout! Learn more

10-Day Weather Forecast

Advertisements
Track Severe Weather on mobile